BAW750 EGLL-LSGG
Flight info
| Callsign | BAW750 |
|---|---|
| Flight time | 1h 14m |
| Altitude | 37000 |
| Route | MAXIT Y803 MID UL612 VEULE DCT PEKIM DCT PILUL DCT PIMUP DCT PIXIS DCT PIBAT DCT LUSAR |
| Aircraft | A320/M-SDE3FGHIRWY/LB1 |
Departure
| Time | 2026-05-04 13:28 |
|---|---|
| Airport | London Heathrow Airport (EGLL) |
Arrival
| Time | 2026-05-04 14:43 |
|---|---|
| Airport | Geneva International Airport (LSGG) |
| Time | Latitude | Longitude | Altitude | Speed | Heading |
|---|---|---|---|---|---|
| 2026-05-04 12:58 | 51.47270 | -0.48588 | 87 ft | 0 kts | 270° |
| 2026-05-04 13:17 | 51.47270 | -0.48583 | 90 ft | 3 kts | 270° |
| 2026-05-04 13:17 | 51.47271 | -0.48541 | 89 ft | 4 kts | 270° |
| 2026-05-04 13:17 | 51.47271 | -0.48506 | 89 ft | 4 kts | 261° |
| 2026-05-04 13:17 | 51.47282 | -0.48477 | 90 ft | 4 kts | 186° |
| 2026-05-04 13:18 | 51.47307 | -0.48476 | 87 ft | 4 kts | 180° |
| 2026-05-04 13:18 | 51.47327 | -0.48476 | 87 ft | 0 kts | 180° |
| 2026-05-04 13:20 | 51.47324 | -0.48476 | 87 ft | 3 kts | 179° |
| 2026-05-04 13:21 | 51.47272 | -0.48476 | 88 ft | 11 kts | 180° |
| 2026-05-04 13:21 | 51.47191 | -0.48476 | 87 ft | 13 kts | 180° |
| 2026-05-04 13:21 | 51.47098 | -0.48475 | 87 ft | 14 kts | 180° |
| 2026-05-04 13:21 | 51.46991 | -0.48474 | 87 ft | 16 kts | 179° |
| 2026-05-04 13:22 | 51.46872 | -0.48472 | 87 ft | 18 kts | 179° |
| 2026-05-04 13:22 | 51.46742 | -0.48472 | 89 ft | 13 kts | 180° |
| 2026-05-04 13:22 | 51.46660 | -0.48455 | 88 ft | 11 kts | 140° |
| 2026-05-04 13:22 | 51.46652 | -0.48323 | 87 ft | 17 kts | 90° |
| 2026-05-04 13:23 | 51.46653 | -0.48059 | 87 ft | 29 kts | 89° |
| 2026-05-04 13:23 | 51.46654 | -0.47726 | 87 ft | 30 kts | 90° |
| 2026-05-04 13:23 | 51.46655 | -0.47381 | 87 ft | 32 kts | 89° |
| 2026-05-04 13:23 | 51.46656 | -0.47024 | 87 ft | 32 kts | 90° |
| 2026-05-04 13:24 | 51.46657 | -0.46659 | 90 ft | 33 kts | 90° |
| 2026-05-04 13:24 | 51.46659 | -0.46284 | 89 ft | 34 kts | 90° |
| 2026-05-04 13:24 | 51.46660 | -0.45900 | 87 ft | 35 kts | 89° |
| 2026-05-04 13:25 | 51.46663 | -0.45226 | 87 ft | 27 kts | 90° |
| 2026-05-04 13:25 | 51.46663 | -0.44935 | 87 ft | 20 kts | 89° |
| 2026-05-04 13:25 | 51.46665 | -0.44700 | 87 ft | 22 kts | 90° |
| 2026-05-04 13:25 | 51.46664 | -0.44444 | 87 ft | 24 kts | 90° |
| 2026-05-04 13:26 | 51.46666 | -0.44168 | 87 ft | 26 kts | 89° |
| 2026-05-04 13:26 | 51.46667 | -0.43916 | 87 ft | 15 kts | 90° |
| 2026-05-04 13:26 | 51.46663 | -0.43848 | 87 ft | 2 kts | 116° |
| 2026-05-04 13:26 | 51.46641 | -0.43832 | 86 ft | 5 kts | 173° |
| 2026-05-04 13:27 | 51.46600 | -0.43831 | 86 ft | 7 kts | 179° |
| 2026-05-04 13:27 | 51.46538 | -0.43830 | 85 ft | 10 kts | 179° |
| 2026-05-04 13:27 | 51.46496 | -0.43847 | 88 ft | 5 kts | 231° |
| 2026-05-04 13:27 | 51.46491 | -0.43975 | 86 ft | 31 kts | 269° |
| 2026-05-04 13:28 | 51.46492 | -0.44688 | 89 ft | 96 kts | 269° |
| 2026-05-04 13:28 | 51.46485 | -0.46052 | 90 ft | 146 kts | 270° |
| 2026-05-04 13:28 | 51.46490 | -0.47836 | 334 ft | 163 kts | 271° |
| 2026-05-04 13:28 | 51.46498 | -0.49635 | 937 ft | 161 kts | 270° |
| 2026-05-04 13:29 | 51.46486 | -0.51456 | 1430 ft | 165 kts | 270° |
| 2026-05-04 13:29 | 51.46297 | -0.53351 | 1748 ft | 185 kts | 249° |
| 2026-05-04 13:29 | 51.45633 | -0.55271 | 2103 ft | 209 kts | 239° |
| 2026-05-04 13:29 | 51.44855 | -0.57389 | 2467 ft | 233 kts | 240° |
| 2026-05-04 13:30 | 51.43976 | -0.59736 | 2949 ft | 257 kts | 233° |
| 2026-05-04 13:30 | 51.42552 | -0.61480 | 3695 ft | 264 kts | 198° |
| 2026-05-04 13:30 | 51.40731 | -0.61609 | 4565 ft | 267 kts | 166° |
| 2026-05-04 13:30 | 51.38955 | -0.60732 | 5478 ft | 268 kts | 162° |
| 2026-05-04 13:31 | 51.37188 | -0.59753 | 6377 ft | 270 kts | 161° |
| 2026-05-04 13:31 | 51.35410 | -0.58743 | 7202 ft | 273 kts | 161° |
| 2026-05-04 13:31 | 51.33610 | -0.57727 | 8035 ft | 276 kts | 162° |
| 2026-05-04 13:31 | 51.31790 | -0.56710 | 8824 ft | 279 kts | 162° |
| 2026-05-04 13:32 | 51.29921 | -0.55833 | 9626 ft | 282 kts | 172° |
| 2026-05-04 13:32 | 51.27959 | -0.55679 | 10367 ft | 284 kts | 186° |
| 2026-05-04 13:32 | 51.25923 | -0.56004 | 10638 ft | 306 kts | 187° |
| 2026-05-04 13:32 | 51.23748 | -0.56562 | 10819 ft | 327 kts | 192° |
| 2026-05-04 13:33 | 51.21478 | -0.57315 | 11290 ft | 337 kts | 192° |
| 2026-05-04 13:33 | 51.19171 | -0.58075 | 11930 ft | 341 kts | 192° |
| 2026-05-04 13:33 | 51.16837 | -0.58833 | 12584 ft | 344 kts | 192° |
| 2026-05-04 13:33 | 51.14479 | -0.59591 | 13259 ft | 347 kts | 192° |
| 2026-05-04 13:34 | 51.12127 | -0.60346 | 13917 ft | 351 kts | 192° |
| 2026-05-04 13:34 | 51.09722 | -0.61109 | 14519 ft | 354 kts | 189° |
| 2026-05-04 13:34 | 51.07258 | -0.61354 | 15122 ft | 357 kts | 177° |
| 2026-05-04 13:34 | 51.04800 | -0.60727 | 15718 ft | 360 kts | 165° |
| 2026-05-04 13:35 | 51.02464 | -0.59251 | 16305 ft | 363 kts | 153° |
| 2026-05-04 13:35 | 50.98209 | -0.54815 | 17509 ft | 368 kts | 147° |
| 2026-05-04 13:35 | 50.96073 | -0.52537 | 18143 ft | 371 kts | 147° |
| 2026-05-04 13:36 | 50.93925 | -0.50253 | 18709 ft | 373 kts | 147° |
| 2026-05-04 13:36 | 50.91758 | -0.47952 | 19249 ft | 377 kts | 148° |
| 2026-05-04 13:36 | 50.89570 | -0.45630 | 19796 ft | 380 kts | 148° |
| 2026-05-04 13:36 | 50.87362 | -0.43290 | 20347 ft | 383 kts | 148° |
| 2026-05-04 13:37 | 50.85141 | -0.40934 | 20883 ft | 386 kts | 148° |
| 2026-05-04 13:37 | 50.82899 | -0.38556 | 21393 ft | 389 kts | 148° |
| 2026-05-04 13:37 | 50.80641 | -0.36167 | 21890 ft | 392 kts | 148° |
| 2026-05-04 13:37 | 50.79134 | -0.34574 | 22206 ft | 394 kts | 149° |
| 2026-05-04 13:38 | 50.76073 | -0.31344 | 22851 ft | 397 kts | 149° |
| 2026-05-04 13:38 | 50.73765 | -0.28917 | 23327 ft | 400 kts | 149° |
| 2026-05-04 13:38 | 50.71441 | -0.26479 | 23761 ft | 402 kts | 149° |
| 2026-05-04 13:38 | 50.69105 | -0.24032 | 24160 ft | 404 kts | 149° |
| 2026-05-04 13:39 | 50.66789 | -0.21603 | 24551 ft | 406 kts | 149° |
| 2026-05-04 13:39 | 50.64436 | -0.19134 | 24939 ft | 407 kts | 149° |
| 2026-05-04 13:39 | 50.62075 | -0.16656 | 25324 ft | 409 kts | 149° |
| 2026-05-04 13:39 | 50.59707 | -0.14172 | 25701 ft | 410 kts | 149° |
| 2026-05-04 13:40 | 50.57324 | -0.11676 | 26071 ft | 412 kts | 149° |
| 2026-05-04 13:40 | 50.54936 | -0.09179 | 26431 ft | 413 kts | 149° |
| 2026-05-04 13:40 | 50.52539 | -0.06675 | 26793 ft | 415 kts | 149° |
| 2026-05-04 13:40 | 50.50126 | -0.04159 | 27148 ft | 417 kts | 149° |
| 2026-05-04 13:41 | 50.47705 | -0.01645 | 27500 ft | 418 kts | 149° |
| 2026-05-04 13:41 | 50.45269 | 0.00879 | 27845 ft | 420 kts | 149° |
| 2026-05-04 13:41 | 50.42822 | 0.03410 | 28182 ft | 422 kts | 149° |
| 2026-05-04 13:42 | 50.37897 | 0.08507 | 28895 ft | 425 kts | 149° |
| 2026-05-04 13:42 | 50.35436 | 0.11052 | 29375 ft | 423 kts | 149° |
| 2026-05-04 13:42 | 50.32984 | 0.13587 | 29852 ft | 422 kts | 149° |
| 2026-05-04 13:42 | 50.30538 | 0.16114 | 30301 ft | 420 kts | 149° |
| 2026-05-04 13:43 | 50.28097 | 0.18629 | 30715 ft | 419 kts | 149° |
| 2026-05-04 13:43 | 50.25665 | 0.21126 | 31131 ft | 418 kts | 149° |
| 2026-05-04 13:43 | 50.23236 | 0.23613 | 31548 ft | 417 kts | 149° |
| 2026-05-04 13:43 | 50.20812 | 0.26091 | 31971 ft | 415 kts | 149° |
| 2026-05-04 13:44 | 50.18402 | 0.28557 | 32393 ft | 414 kts | 149° |
| 2026-05-04 13:44 | 50.15997 | 0.31027 | 32822 ft | 413 kts | 149° |
| 2026-05-04 13:44 | 50.13602 | 0.33489 | 33250 ft | 412 kts | 149° |
| 2026-05-04 13:44 | 50.11246 | 0.35913 | 33662 ft | 411 kts | 149° |
| 2026-05-04 13:45 | 50.08868 | 0.38360 | 34063 ft | 409 kts | 149° |
| 2026-05-04 13:45 | 50.06490 | 0.40801 | 34368 ft | 409 kts | 149° |
| 2026-05-04 13:45 | 50.04111 | 0.43236 | 34631 ft | 410 kts | 149° |
| 2026-05-04 13:45 | 50.01724 | 0.45672 | 34876 ft | 411 kts | 149° |
| 2026-05-04 13:46 | 49.99329 | 0.48115 | 35112 ft | 412 kts | 149° |
| 2026-05-04 13:46 | 49.96929 | 0.50557 | 35347 ft | 413 kts | 149° |
| 2026-05-04 13:46 | 49.94524 | 0.53002 | 35568 ft | 414 kts | 149° |
| 2026-05-04 13:46 | 49.92112 | 0.55452 | 35798 ft | 415 kts | 149° |
| 2026-05-04 13:47 | 49.89698 | 0.57905 | 36033 ft | 416 kts | 149° |
| 2026-05-04 13:47 | 49.87278 | 0.60367 | 36239 ft | 416 kts | 149° |
| 2026-05-04 13:47 | 49.84952 | 0.63063 | 36441 ft | 420 kts | 140° |
| 2026-05-04 13:47 | 49.82813 | 0.66166 | 36632 ft | 421 kts | 139° |
| 2026-05-04 13:48 | 49.80677 | 0.69282 | 36837 ft | 422 kts | 139° |
| 2026-05-04 13:48 | 49.78534 | 0.72397 | 36973 ft | 424 kts | 139° |
| 2026-05-04 13:48 | 49.74183 | 0.78703 | 36995 ft | 434 kts | 139° |
| 2026-05-04 13:49 | 49.69756 | 0.85118 | 36995 ft | 437 kts | 139° |
| 2026-05-04 13:49 | 49.65306 | 0.91535 | 36994 ft | 438 kts | 139° |
| 2026-05-04 13:50 | 49.60857 | 0.97953 | 36995 ft | 438 kts | 139° |
| 2026-05-04 13:50 | 49.56406 | 1.04364 | 36998 ft | 438 kts | 139° |
| 2026-05-04 13:51 | 49.51937 | 1.10751 | 37002 ft | 438 kts | 140° |
| 2026-05-04 13:51 | 49.47468 | 1.17131 | 37003 ft | 438 kts | 140° |
| 2026-05-04 13:52 | 49.40771 | 1.26690 | 37009 ft | 438 kts | 140° |
| 2026-05-04 13:53 | 49.36302 | 1.33044 | 37009 ft | 438 kts | 140° |
| 2026-05-04 13:53 | 49.31825 | 1.39376 | 37006 ft | 438 kts | 140° |
| 2026-05-04 13:54 | 49.25108 | 1.48851 | 36992 ft | 437 kts | 140° |
| 2026-05-04 13:55 | 49.18383 | 1.58309 | 36981 ft | 437 kts | 140° |
| 2026-05-04 13:55 | 49.11688 | 1.67705 | 36978 ft | 437 kts | 140° |
| 2026-05-04 13:56 | 49.07190 | 1.73974 | 36975 ft | 437 kts | 141° |
| 2026-05-04 13:57 | 49.00452 | 1.83337 | 36978 ft | 437 kts | 141° |
| 2026-05-04 13:58 | 48.91476 | 1.95807 | 36978 ft | 437 kts | 141° |
| 2026-05-04 13:58 | 48.84724 | 2.05117 | 36982 ft | 437 kts | 141° |
| 2026-05-04 13:59 | 48.80224 | 2.11293 | 36984 ft | 436 kts | 141° |
| 2026-05-04 14:00 | 48.74235 | 2.19503 | 36984 ft | 436 kts | 141° |
| 2026-05-04 14:00 | 48.67481 | 2.28734 | 36986 ft | 436 kts | 141° |
| 2026-05-04 14:01 | 48.62978 | 2.34876 | 36983 ft | 436 kts | 141° |
| 2026-05-04 14:02 | 48.56217 | 2.44051 | 36982 ft | 435 kts | 142° |
| 2026-05-04 14:02 | 48.51742 | 2.50098 | 36986 ft | 435 kts | 142° |
| 2026-05-04 14:03 | 48.47237 | 2.56181 | 36976 ft | 435 kts | 142° |
| 2026-05-04 14:03 | 48.42729 | 2.62260 | 36976 ft | 434 kts | 142° |
| 2026-05-04 14:04 | 48.35973 | 2.71347 | 36979 ft | 434 kts | 142° |
| 2026-05-04 14:04 | 48.31466 | 2.77378 | 36986 ft | 434 kts | 142° |
| 2026-05-04 14:05 | 48.24623 | 2.86251 | 36984 ft | 432 kts | 146° |
| 2026-05-04 14:06 | 48.19849 | 2.91707 | 36985 ft | 431 kts | 147° |
| 2026-05-04 14:06 | 48.15044 | 2.97083 | 36976 ft | 431 kts | 147° |
| 2026-05-04 14:07 | 48.10267 | 3.02527 | 36976 ft | 431 kts | 147° |
| 2026-05-04 14:07 | 48.05108 | 3.06867 | 36981 ft | 424 kts | 160° |
| 2026-05-04 14:08 | 47.99670 | 3.10300 | 36978 ft | 424 kts | 161° |
| 2026-05-04 14:08 | 47.94227 | 3.13704 | 36975 ft | 424 kts | 161° |
| 2026-05-04 14:09 | 47.86058 | 3.18822 | 36977 ft | 425 kts | 161° |
| 2026-05-04 14:10 | 47.77911 | 3.23924 | 36973 ft | 425 kts | 161° |
| 2026-05-04 14:10 | 47.72457 | 3.27319 | 36975 ft | 425 kts | 161° |
| 2026-05-04 14:11 | 47.67001 | 3.30707 | 36969 ft | 425 kts | 161° |
| 2026-05-04 14:11 | 47.58811 | 3.35792 | 36971 ft | 426 kts | 161° |
| 2026-05-04 14:12 | 47.53345 | 3.39173 | 36970 ft | 426 kts | 161° |
| 2026-05-04 14:13 | 47.45143 | 3.44221 | 36969 ft | 426 kts | 161° |
| 2026-05-04 14:13 | 47.39676 | 3.47591 | 36968 ft | 426 kts | 161° |
| 2026-05-04 14:14 | 47.34197 | 3.50955 | 36972 ft | 426 kts | 161° |
| 2026-05-04 14:14 | 47.25981 | 3.55994 | 36969 ft | 427 kts | 161° |
| 2026-05-04 14:15 | 47.15022 | 3.62671 | 36975 ft | 426 kts | 162° |
| 2026-05-04 14:16 | 47.06796 | 3.67657 | 36975 ft | 426 kts | 162° |
| 2026-05-04 14:17 | 46.98607 | 3.72767 | 36980 ft | 430 kts | 155° |
| 2026-05-04 14:17 | 46.94000 | 3.78461 | 36971 ft | 443 kts | 133° |
| 2026-05-04 14:18 | 46.92317 | 3.82270 | 36963 ft | 451 kts | 121° |
| 2026-05-04 14:19 | 46.87677 | 3.99434 | 36969 ft | 456 kts | 116° |
| 2026-05-04 14:19 | 46.85373 | 4.08072 | 36967 ft | 457 kts | 116° |
| 2026-05-04 14:20 | 46.83058 | 4.16718 | 36972 ft | 457 kts | 116° |
| 2026-05-04 14:20 | 46.80773 | 4.25401 | 36975 ft | 460 kts | 112° |
| 2026-05-04 14:21 | 46.78683 | 4.39198 | 36872 ft | 466 kts | 107° |
| 2026-05-04 14:21 | 46.78009 | 4.43817 | 36596 ft | 464 kts | 107° |
| 2026-05-04 14:21 | 46.77335 | 4.48416 | 36342 ft | 463 kts | 107° |
| 2026-05-04 14:22 | 46.76658 | 4.53007 | 36082 ft | 463 kts | 107° |
| 2026-05-04 14:22 | 46.75980 | 4.57590 | 35523 ft | 464 kts | 107° |
| 2026-05-04 14:22 | 46.75294 | 4.62198 | 34774 ft | 466 kts | 107° |
| 2026-05-04 14:22 | 46.74604 | 4.66821 | 33985 ft | 465 kts | 107° |
| 2026-05-04 14:23 | 46.73266 | 4.75862 | 32194 ft | 447 kts | 107° |
| 2026-05-04 14:23 | 46.72621 | 4.80229 | 31621 ft | 433 kts | 108° |
| 2026-05-04 14:23 | 46.71997 | 4.84451 | 31100 ft | 419 kts | 108° |
| 2026-05-04 14:24 | 46.71384 | 4.88548 | 30591 ft | 411 kts | 108° |
| 2026-05-04 14:24 | 46.70765 | 4.92611 | 30066 ft | 410 kts | 108° |
| 2026-05-04 14:24 | 46.70144 | 4.96656 | 29492 ft | 408 kts | 108° |
| 2026-05-04 14:24 | 46.69527 | 5.00682 | 28986 ft | 406 kts | 108° |
| 2026-05-04 14:25 | 46.68917 | 5.04676 | 28470 ft | 403 kts | 108° |
| 2026-05-04 14:25 | 46.67704 | 5.12611 | 27447 ft | 400 kts | 108° |
| 2026-05-04 14:25 | 46.67101 | 5.16555 | 26944 ft | 399 kts | 108° |
| 2026-05-04 14:26 | 46.66499 | 5.20496 | 26462 ft | 398 kts | 108° |
| 2026-05-04 14:26 | 46.65905 | 5.24423 | 25975 ft | 397 kts | 108° |
| 2026-05-04 14:26 | 46.65315 | 5.28346 | 25498 ft | 397 kts | 108° |
| 2026-05-04 14:26 | 46.64723 | 5.32272 | 25027 ft | 397 kts | 108° |
| 2026-05-04 14:27 | 46.64131 | 5.36188 | 24572 ft | 396 kts | 107° |
| 2026-05-04 14:27 | 46.63538 | 5.40106 | 24109 ft | 397 kts | 108° |
| 2026-05-04 14:27 | 46.62945 | 5.44025 | 23668 ft | 396 kts | 107° |
| 2026-05-04 14:27 | 46.62352 | 5.47930 | 23182 ft | 396 kts | 107° |
| 2026-05-04 14:28 | 46.61756 | 5.51822 | 22736 ft | 393 kts | 107° |
| 2026-05-04 14:28 | 46.61158 | 5.55682 | 22301 ft | 390 kts | 108° |
| 2026-05-04 14:28 | 46.60558 | 5.59513 | 21855 ft | 388 kts | 107° |
| 2026-05-04 14:28 | 46.59957 | 5.63325 | 21405 ft | 385 kts | 107° |
| 2026-05-04 14:29 | 46.58762 | 5.70870 | 20492 ft | 380 kts | 107° |
| 2026-05-04 14:29 | 46.57302 | 5.78171 | 19557 ft | 370 kts | 120° |
| 2026-05-04 14:30 | 46.56093 | 5.81132 | 19131 ft | 362 kts | 131° |
| 2026-05-04 14:30 | 46.54464 | 5.83829 | 18665 ft | 356 kts | 141° |
| 2026-05-04 14:30 | 46.50532 | 5.88030 | 17655 ft | 349 kts | 149° |
| 2026-05-04 14:31 | 46.48541 | 5.90030 | 17158 ft | 347 kts | 149° |
| 2026-05-04 14:31 | 46.44577 | 5.94013 | 16098 ft | 346 kts | 149° |
| 2026-05-04 14:32 | 46.40624 | 5.97975 | 15114 ft | 343 kts | 149° |
| 2026-05-04 14:32 | 46.38712 | 5.99924 | 14981 ft | 326 kts | 145° |
| 2026-05-04 14:32 | 46.37250 | 6.02326 | 14693 ft | 317 kts | 122° |
| 2026-05-04 14:32 | 46.36612 | 6.05359 | 14396 ft | 320 kts | 97° |
| 2026-05-04 14:33 | 46.36914 | 6.08559 | 14138 ft | 326 kts | 71° |
| 2026-05-04 14:33 | 46.38133 | 6.11344 | 13599 ft | 334 kts | 47° |
| 2026-05-04 14:33 | 46.39752 | 6.13734 | 13097 ft | 329 kts | 45° |
| 2026-05-04 14:33 | 46.41367 | 6.16071 | 12451 ft | 326 kts | 45° |
| 2026-05-04 14:34 | 46.42963 | 6.18374 | 11891 ft | 321 kts | 45° |
| 2026-05-04 14:34 | 46.44535 | 6.20653 | 11344 ft | 317 kts | 46° |
| 2026-05-04 14:34 | 46.46062 | 6.22885 | 10847 ft | 316 kts | 46° |
| 2026-05-04 14:34 | 46.47633 | 6.25200 | 10467 ft | 317 kts | 46° |
| 2026-05-04 14:35 | 46.49168 | 6.27478 | 10189 ft | 315 kts | 46° |
| 2026-05-04 14:35 | 46.50693 | 6.29744 | 9632 ft | 312 kts | 46° |
| 2026-05-04 14:35 | 46.51984 | 6.32142 | 9196 ft | 299 kts | 68° |
| 2026-05-04 14:35 | 46.52374 | 6.35018 | 8807 ft | 280 kts | 99° |
| 2026-05-04 14:36 | 46.51796 | 6.37585 | 8581 ft | 261 kts | 127° |
| 2026-05-04 14:36 | 46.50627 | 6.39500 | 8379 ft | 257 kts | 139° |
| 2026-05-04 14:36 | 46.49338 | 6.41330 | 7984 ft | 261 kts | 139° |
| 2026-05-04 14:36 | 46.47887 | 6.42880 | 7571 ft | 259 kts | 163° |
| 2026-05-04 14:37 | 46.46124 | 6.43016 | 7199 ft | 257 kts | 197° |
| 2026-05-04 14:37 | 46.44615 | 6.41692 | 6892 ft | 257 kts | 223° |
| 2026-05-04 14:37 | 46.43374 | 6.39851 | 6562 ft | 251 kts | 225° |
| 2026-05-04 14:37 | 46.42194 | 6.38051 | 6225 ft | 242 kts | 225° |
| 2026-05-04 14:38 | 46.41045 | 6.36337 | 5925 ft | 232 kts | 224° |
| 2026-05-04 14:38 | 46.39942 | 6.34703 | 5613 ft | 222 kts | 225° |
| 2026-05-04 14:38 | 46.38883 | 6.33135 | 5323 ft | 213 kts | 224° |
| 2026-05-04 14:38 | 46.37863 | 6.31625 | 5049 ft | 208 kts | 225° |
| 2026-05-04 14:39 | 46.36855 | 6.30134 | 4779 ft | 207 kts | 225° |
| 2026-05-04 14:39 | 46.35849 | 6.28646 | 4507 ft | 206 kts | 225° |
| 2026-05-04 14:39 | 46.34869 | 6.27197 | 4241 ft | 196 kts | 225° |
| 2026-05-04 14:40 | 46.33020 | 6.24467 | 3716 ft | 186 kts | 225° |
| 2026-05-04 14:40 | 46.32138 | 6.23165 | 3470 ft | 174 kts | 225° |
| 2026-05-04 14:40 | 46.31306 | 6.21937 | 3253 ft | 169 kts | 225° |
| 2026-05-04 14:40 | 46.30488 | 6.20732 | 3030 ft | 167 kts | 225° |
| 2026-05-04 14:41 | 46.29676 | 6.19535 | 2786 ft | 166 kts | 226° |
| 2026-05-04 14:41 | 46.28902 | 6.18395 | 2556 ft | 152 kts | 226° |
| 2026-05-04 14:41 | 46.27463 | 6.16275 | 2111 ft | 145 kts | 226° |
| 2026-05-04 14:42 | 46.26056 | 6.14206 | 1720 ft | 144 kts | 227° |
| 2026-05-04 14:42 | 46.25341 | 6.13172 | 1514 ft | 146 kts | 227° |
| 2026-05-04 14:42 | 46.24643 | 6.12119 | 1376 ft | 137 kts | 224° |
| 2026-05-04 14:43 | 46.24128 | 6.11369 | 1374 ft | 70 kts | 225° |
| 2026-05-04 14:43 | 46.23907 | 6.11042 | 1379 ft | 35 kts | 226° |
| 2026-05-04 14:43 | 46.23743 | 6.10826 | 1380 ft | 24 kts | 212° |
| 2026-05-04 14:43 | 46.23604 | 6.10730 | 1381 ft | 16 kts | 193° |
| 2026-05-04 14:44 | 46.23519 | 6.10699 | 1387 ft | 10 kts | 196° |
| 2026-05-04 14:44 | 46.23466 | 6.10676 | 1388 ft | 4 kts | 196° |
| 2026-05-04 14:44 | 46.23452 | 6.10683 | 1388 ft | 1 kts | 130° |
| 2026-05-04 14:44 | 46.23456 | 6.10711 | 1387 ft | 3 kts | 68° |
| 2026-05-04 14:45 | 46.23473 | 6.10740 | 1385 ft | 4 kts | 47° |
| 2026-05-04 14:45 | 46.23493 | 6.10774 | 1385 ft | 3 kts | 60° |
| 2026-05-04 14:45 | 46.23487 | 6.10794 | 1384 ft | 2 kts | 116° |
| 2026-05-04 14:45 | 46.23476 | 6.10811 | 1384 ft | 2 kts | 135° |
| 2026-05-04 14:46 | 46.23468 | 6.10823 | 1385 ft | 1 kts | 135° |
| 2026-05-04 14:46 | 46.23463 | 6.10830 | 1385 ft | 1 kts | 135° |
| 2026-05-04 14:46 | 46.23455 | 6.10842 | 1387 ft | 3 kts | 135° |
| 2026-05-04 14:46 | 46.23449 | 6.10850 | 1387 ft | 0 kts | 135° |